createdAt,value
2022-08-31T00:01:44.584Z,4.80
2022-08-31T00:04:13.103Z,5.03
2022-08-31T00:06:39.548Z,4.80
2022-08-31T00:09:07.070Z,5.30
2022-08-31T00:11:36.069Z,5.00
2022-08-31T00:14:12.432Z,4.80
2022-08-31T00:16:43.329Z,5.03
2022-08-31T00:19:10.426Z,5.13
2022-08-31T00:21:39.020Z,5.13
2022-08-31T00:24:06.250Z,5.20
2022-08-31T00:26:32.903Z,5.00
2022-08-31T00:28:59.394Z,5.10
2022-08-31T00:31:25.898Z,4.87
2022-08-31T00:33:52.664Z,4.70
2022-08-31T00:36:24.516Z,4.83
2022-08-31T00:38:51.885Z,4.50
2022-08-31T00:41:21.596Z,5.43
2022-08-31T00:43:55.260Z,4.50
2022-08-31T00:46:30.777Z,4.50
2022-08-31T00:49:10.880Z,4.33
2022-08-31T00:51:49.685Z,4.40
2022-08-31T00:54:20.392Z,4.43
2022-08-31T00:56:47.243Z,3.97
2022-08-31T00:59:15.046Z,4.47
2022-08-31T01:01:41.656Z,4.50
2022-08-31T01:04:08.068Z,4.60
2022-08-31T01:06:34.868Z,4.30
2022-08-31T01:09:04.508Z,4.10
2022-08-31T01:11:31.774Z,4.93
2022-08-31T01:13:58.523Z,4.83
2022-08-31T01:16:33.154Z,4.33
2022-08-31T01:19:02.636Z,4.40
2022-08-31T01:21:37.964Z,4.60
2022-08-31T01:24:05.015Z,4.90
2022-08-31T01:26:32.821Z,5.10
2022-08-31T01:29:03.957Z,5.13
2022-08-31T01:31:41.119Z,4.90
2022-08-31T01:34:07.920Z,5.47
2022-08-31T01:36:36.868Z,5.10
2022-08-31T01:39:05.665Z,5.20
2022-08-31T01:41:32.366Z,5.20
2022-08-31T01:43:58.841Z,5.70
2022-08-31T01:46:25.412Z,5.60
2022-08-31T01:48:52.429Z,5.17
2022-08-31T01:51:21.926Z,6.20
2022-08-31T01:53:49.803Z,5.73
2022-08-31T01:56:23.885Z,5.70
2022-08-31T01:58:50.560Z,5.97
2022-08-31T02:01:37.874Z,5.60
2022-08-31T02:04:05.806Z,5.73
2022-08-31T02:06:33.409Z,6.10
2022-08-31T02:09:01.010Z,6.00
2022-08-31T02:11:27.355Z,6.37
2022-08-31T02:13:53.968Z,6.37
2022-08-31T02:16:20.372Z,5.87
2022-08-31T02:18:46.817Z,6.47
2022-08-31T02:21:13.698Z,6.10
2022-08-31T02:23:40.948Z,5.90
2022-08-31T02:26:07.485Z,5.87
2022-08-31T02:28:34.055Z,6.27
2022-08-31T02:31:00.472Z,6.27
2022-08-31T02:33:27.073Z,6.27
2022-08-31T02:35:53.579Z,6.43
2022-08-31T02:38:22.838Z,6.30
2022-08-31T02:40:51.211Z,6.37
2022-08-31T02:43:24.559Z,6.57
2022-08-31T02:45:53.031Z,6.20
2022-08-31T02:48:20.837Z,6.70
2022-08-31T02:50:49.942Z,6.60
2022-08-31T02:53:18.758Z,6.70
2022-08-31T02:55:45.270Z,6.73
2022-08-31T02:58:12.423Z,6.53
2022-08-31T03:00:40.624Z,6.47
2022-08-31T03:03:07.029Z,6.73
2022-08-31T03:05:33.440Z,7.00
2022-08-31T03:07:59.806Z,6.83
2022-08-31T03:10:26.845Z,7.10
2022-08-31T03:12:53.691Z,7.60
2022-08-31T03:15:22.399Z,7.00
2022-08-31T03:17:48.796Z,6.77
2022-08-31T03:20:16.549Z,6.80
2022-08-31T03:22:45.446Z,6.87
2022-08-31T03:25:12.451Z,7.27
2022-08-31T03:27:39.045Z,7.20
2022-08-31T03:30:08.544Z,7.50
2022-08-31T03:32:35.009Z,6.53
2022-08-31T03:35:02.378Z,6.87
2022-08-31T03:37:29.017Z,7.13
2022-08-31T03:39:55.817Z,7.40
2022-08-31T03:42:22.178Z,6.47
2022-08-31T03:44:49.034Z,7.03
2022-08-31T03:47:16.676Z,6.97
2022-08-31T03:49:43.912Z,7.27
2022-08-31T03:52:10.813Z,6.30
2022-08-31T03:54:37.337Z,6.67
2022-08-31T03:57:07.660Z,6.73
2022-08-31T03:59:34.018Z,7.53
2022-08-31T04:02:00.510Z,6.80
2022-08-31T04:04:26.963Z,6.20
2022-08-31T04:06:53.342Z,6.90
2022-08-31T04:09:19.861Z,6.83
2022-08-31T04:11:46.221Z,6.67
2022-08-31T04:14:15.341Z,6.60
2022-08-31T04:16:43.700Z,6.40
2022-08-31T04:19:11.249Z,7.20
2022-08-31T04:21:37.846Z,7.43
2022-08-31T04:24:04.649Z,8.17
2022-08-31T04:26:36.329Z,7.40
2022-08-31T04:29:07.698Z,7.30
2022-08-31T04:31:37.936Z,7.10
2022-08-31T04:34:05.653Z,7.30
2022-08-31T04:36:32.598Z,7.40
2022-08-31T04:39:01.050Z,7.77
2022-08-31T04:41:29.668Z,8.07
2022-08-31T04:43:58.453Z,6.83
2022-08-31T04:46:25.734Z,7.83
2022-08-31T04:48:52.333Z,7.73
2022-08-31T04:51:22.403Z,8.10
2022-08-31T04:53:49.869Z,6.93
2022-08-31T04:56:20.421Z,8.00
2022-08-31T04:58:50.292Z,6.70
2022-08-31T05:01:20.164Z,7.20
2022-08-31T05:03:51.059Z,7.77
2022-08-31T05:06:19.843Z,7.23
2022-08-31T05:08:51.812Z,7.20
2022-08-31T05:11:24.280Z,8.20
2022-08-31T05:13:52.585Z,7.60
2022-08-31T05:16:19.870Z,7.73
2022-08-31T05:18:48.009Z,8.50
2022-08-31T05:21:20.161Z,8.90
2022-08-31T05:23:48.457Z,8.13
2022-08-31T05:26:23.576Z,7.73
2022-08-31T05:28:53.990Z,7.30
2022-08-31T05:31:21.505Z,8.33
2022-08-31T05:33:47.935Z,8.47
2022-08-31T05:36:14.637Z,8.10
2022-08-31T05:38:41.924Z,8.43
2022-08-31T05:41:08.658Z,8.40
2022-08-31T05:43:35.044Z,8.43
2022-08-31T05:46:04.576Z,9.20
2022-08-31T05:48:36.386Z,8.33
2022-08-31T05:51:06.862Z,8.37
2022-08-31T05:53:34.964Z,8.10
2022-08-31T05:56:06.629Z,7.77
2022-08-31T05:58:33.932Z,8.10
2022-08-31T06:01:01.363Z,8.20
2022-08-31T06:03:29.162Z,7.23
2022-08-31T06:05:55.508Z,7.77
2022-08-31T06:08:27.304Z,8.47
2022-08-31T06:11:00.737Z,7.20
2022-08-31T06:13:27.149Z,8.00
2022-08-31T06:15:53.604Z,7.93
2022-08-31T06:18:20.957Z,7.73
2022-08-31T06:20:47.834Z,7.90
2022-08-31T06:23:14.218Z,6.47
2022-08-31T06:25:40.617Z,6.80
2022-08-31T06:28:07.350Z,6.27
2022-08-31T06:30:54.328Z,7.10
2022-08-31T06:33:21.917Z,6.40
2022-08-31T06:35:48.250Z,6.70
2022-08-31T06:38:14.644Z,6.77
2022-08-31T06:40:41.013Z,6.60
2022-08-31T06:43:07.814Z,6.53
2022-08-31T06:45:34.165Z,7.40
2022-08-31T06:48:00.762Z,5.67
2022-08-31T06:50:27.645Z,6.00
2022-08-31T06:52:55.527Z,6.13
2022-08-31T06:55:22.365Z,6.17
2022-08-31T06:57:48.717Z,7.00
2022-08-31T07:00:15.385Z,6.20
2022-08-31T07:02:41.761Z,6.10
2022-08-31T07:05:11.505Z,6.30
2022-08-31T07:07:41.468Z,6.90
2022-08-31T07:10:10.420Z,6.53
2022-08-31T07:12:36.864Z,6.63
2022-08-31T07:15:03.613Z,6.77
2022-08-31T07:17:32.484Z,6.10
2022-08-31T07:19:58.820Z,6.33
2022-08-31T07:22:25.171Z,6.03
2022-08-31T07:24:51.534Z,6.80
2022-08-31T07:27:18.311Z,6.17
2022-08-31T07:29:44.817Z,5.83
2022-08-31T07:32:13.624Z,6.30
2022-08-31T07:34:40.316Z,6.47
2022-08-31T07:37:25.965Z,6.53
2022-08-31T07:40:11.391Z,6.50
2022-08-31T07:42:40.735Z,6.40
2022-08-31T07:45:12.934Z,7.00
2022-08-31T07:47:46.919Z,6.63
2022-08-31T07:50:15.715Z,6.03
2022-08-31T07:52:52.959Z,6.90
2022-08-31T07:55:22.447Z,6.70
2022-08-31T07:57:50.712Z,6.60
2022-08-31T08:00:21.359Z,6.67
2022-08-31T08:02:52.720Z,6.50
2022-08-31T08:05:27.546Z,7.27
2022-08-31T08:07:58.358Z,7.03
2022-08-31T08:10:26.142Z,6.20
2022-08-31T08:12:57.149Z,6.10
2022-08-31T08:15:25.025Z,6.50
2022-08-31T08:17:51.837Z,6.50
2022-08-31T08:20:19.384Z,6.43
2022-08-31T08:23:00.746Z,6.70
2022-08-31T08:25:27.158Z,6.13
2022-08-31T08:27:54.665Z,7.00
2022-08-31T08:30:21.658Z,6.77
2022-08-31T08:32:48.085Z,6.63
2022-08-31T08:35:14.635Z,5.83
2022-08-31T08:37:57.874Z,6.87
2022-08-31T08:40:43.127Z,6.73
2022-08-31T08:43:12.801Z,6.30
2022-08-31T08:45:40.161Z,7.50
2022-08-31T08:48:11.199Z,6.43
2022-08-31T08:50:40.401Z,7.00
2022-08-31T08:53:10.643Z,6.63
2022-08-31T08:55:39.771Z,6.87
2022-08-31T08:58:10.337Z,6.40
2022-08-31T09:00:46.424Z,7.13
2022-08-31T09:03:33.154Z,6.80
2022-08-31T09:06:40.533Z,6.77
2022-08-31T09:09:32.627Z,6.90
2022-08-31T09:12:30.744Z,6.90
2022-08-31T09:15:37.700Z,6.27
2022-08-31T09:18:15.066Z,6.40
2022-08-31T09:20:41.519Z,6.70
2022-08-31T09:23:08.172Z,6.70
2022-08-31T09:25:45.091Z,6.07
2022-08-31T09:28:14.858Z,6.10
2022-08-31T09:30:43.989Z,6.23
2022-08-31T09:33:21.825Z,6.80
2022-08-31T09:35:56.516Z,5.80
2022-08-31T09:38:29.910Z,7.30
2022-08-31T09:40:57.640Z,6.37
2022-08-31T09:43:24.853Z,6.13
2022-08-31T09:45:54.274Z,6.93
2022-08-31T09:48:51.549Z,6.07
2022-08-31T09:51:29.454Z,6.53
2022-08-31T09:54:25.897Z,6.00
2022-08-31T09:56:55.574Z,6.23
2022-08-31T09:59:31.156Z,6.73
2022-08-31T10:02:00.625Z,6.50
2022-08-31T10:04:36.554Z,6.20
2022-08-31T10:07:24.920Z,6.43
2022-08-31T10:09:59.482Z,6.90
2022-08-31T10:12:47.032Z,6.63
2022-08-31T10:15:31.911Z,6.13
2022-08-31T10:18:24.633Z,6.70
2022-08-31T10:20:59.508Z,7.03
2022-08-31T10:23:56.314Z,6.43
2022-08-31T10:26:35.886Z,6.30
2022-08-31T10:29:08.368Z,6.50
2022-08-31T10:31:45.281Z,6.00
2022-08-31T10:34:42.062Z,6.80
2022-08-31T10:37:15.988Z,6.97
2022-08-31T10:39:50.374Z,6.67
2022-08-31T10:42:38.304Z,7.27
2022-08-31T10:45:18.249Z,7.20
2022-08-31T10:47:49.092Z,7.73
2022-08-31T10:50:25.800Z,7.30
2022-08-31T10:53:17.299Z,6.33
2022-08-31T10:55:56.194Z,5.90
2022-08-31T10:58:34.660Z,6.67
2022-08-31T11:01:13.939Z,6.80
2022-08-31T11:03:52.390Z,6.87
2022-08-31T11:06:51.293Z,6.47
2022-08-31T11:09:26.348Z,6.50
2022-08-31T11:12:07.128Z,6.80
2022-08-31T11:14:36.601Z,6.13
2022-08-31T11:17:19.144Z,5.40
2022-08-31T11:20:33.426Z,5.40
2022-08-31T11:23:15.208Z,5.47
2022-08-31T11:26:23.996Z,4.93
2022-08-31T11:28:56.109Z,5.33
2022-08-31T11:31:27.205Z,4.67
2022-08-31T11:34:16.054Z,5.10
2022-08-31T11:36:45.585Z,5.60
2022-08-31T11:39:11.874Z,5.50
2022-08-31T11:41:46.709Z,5.30
2022-08-31T11:44:29.627Z,5.40
2022-08-31T11:47:13.000Z,5.33
2022-08-31T11:49:46.682Z,5.10
2022-08-31T11:52:29.695Z,4.90
2022-08-31T11:55:07.917Z,4.97
2022-08-31T11:58:07.141Z,5.10
2022-08-31T12:00:58.107Z,4.70
2022-08-31T12:03:38.767Z,4.70
2022-08-31T12:06:11.965Z,4.50
2022-08-31T12:08:54.519Z,4.53
2022-08-31T12:11:40.869Z,4.77
2022-08-31T12:14:33.064Z,4.90
2022-08-31T12:17:31.045Z,4.73
2022-08-31T12:20:12.312Z,5.27
2022-08-31T12:23:33.018Z,5.10
2022-08-31T12:26:40.737Z,5.07
2022-08-31T12:29:27.351Z,5.13
2022-08-31T12:32:11.051Z,4.80
2022-08-31T12:34:57.385Z,4.90
2022-08-31T12:37:23.775Z,4.90
2022-08-31T12:40:21.861Z,5.20
2022-08-31T12:43:18.230Z,5.23
2022-08-31T12:46:12.577Z,5.43
2022-08-31T12:48:53.940Z,5.80
2022-08-31T12:51:23.244Z,5.80
2022-08-31T12:54:14.586Z,5.53
2022-08-31T12:57:20.182Z,5.17
2022-08-31T13:00:30.145Z,5.30
2022-08-31T13:03:07.371Z,5.57
2022-08-31T13:05:36.767Z,5.40
2022-08-31T13:08:22.567Z,5.30
2022-08-31T13:10:49.131Z,5.30
2022-08-31T13:13:29.580Z,5.40
2022-08-31T13:16:04.398Z,5.87
2022-08-31T13:18:31.379Z,5.40
2022-08-31T13:21:06.534Z,5.43
2022-08-31T13:23:39.620Z,5.67
2022-08-31T13:26:20.501Z,5.20
2022-08-31T13:28:59.632Z,5.40
2022-08-31T13:31:32.797Z,5.20
2022-08-31T13:34:07.178Z,4.90
2022-08-31T13:36:40.024Z,4.50
2022-08-31T13:39:21.802Z,5.30
2022-08-31T13:42:33.075Z,5.10
2022-08-31T13:45:07.568Z,5.30
2022-08-31T13:47:48.888Z,5.30
2022-08-31T13:50:27.775Z,5.00
2022-08-31T13:53:25.350Z,5.00
2022-08-31T13:55:48.638Z,5.03
2022-08-31T13:58:31.651Z,5.30
2022-08-31T14:01:17.864Z,5.40
2022-08-31T14:03:57.112Z,4.60
2022-08-31T14:06:28.129Z,4.13
2022-08-31T14:09:05.651Z,4.60
2022-08-31T14:11:33.569Z,4.33
2022-08-31T14:14:07.306Z,4.90
2022-08-31T14:16:51.886Z,4.60
2022-08-31T14:19:32.822Z,4.57
2022-08-31T14:22:16.239Z,4.93
2022-08-31T14:24:43.597Z,4.50
2022-08-31T14:27:11.988Z,4.47
2022-08-31T14:29:40.893Z,4.23
2022-08-31T14:32:07.451Z,4.40
2022-08-31T14:34:48.505Z,4.70
2022-08-31T14:37:23.785Z,4.30
2022-08-31T14:40:07.731Z,4.40
2022-08-31T14:42:37.328Z,4.00
2022-08-31T14:45:05.516Z,4.40
2022-08-31T14:47:36.077Z,4.67
2022-08-31T14:50:07.089Z,4.63
2022-08-31T14:52:42.493Z,3.90
2022-08-31T14:55:11.032Z,4.70
2022-08-31T14:57:42.049Z,4.30
2022-08-31T15:00:11.604Z,4.00
2022-08-31T15:02:38.644Z,4.30
2022-08-31T15:05:09.469Z,5.17
2022-08-31T15:07:40.265Z,4.17
2022-08-31T15:10:12.666Z,4.37
2022-08-31T15:12:39.226Z,4.93
2022-08-31T15:15:07.490Z,4.80
2022-08-31T15:17:35.950Z,4.37
2022-08-31T15:20:04.351Z,4.40
2022-08-31T15:22:31.276Z,4.07
2022-08-31T15:24:58.215Z,3.90
2022-08-31T15:27:29.175Z,4.53
2022-08-31T15:29:59.130Z,4.37
2022-08-31T15:32:25.657Z,5.00
2022-08-31T15:34:57.689Z,4.07
2022-08-31T15:37:28.074Z,4.40
2022-08-31T15:39:59.810Z,4.73
2022-08-31T15:42:26.252Z,4.20
2022-08-31T15:45:00.114Z,4.83
2022-08-31T15:47:48.839Z,4.30
2022-08-31T15:50:19.178Z,4.40
2022-08-31T15:52:51.983Z,3.83
2022-08-31T15:55:26.386Z,4.13
2022-08-31T15:57:54.769Z,4.53
2022-08-31T16:00:26.146Z,4.47
2022-08-31T16:02:57.357Z,4.87
2022-08-31T16:05:28.244Z,3.90
2022-08-31T16:07:57.161Z,3.73
2022-08-31T16:10:23.557Z,3.90
2022-08-31T16:12:51.854Z,4.03
2022-08-31T16:15:19.650Z,4.03
2022-08-31T16:17:47.683Z,3.73
2022-08-31T16:20:14.641Z,4.00
2022-08-31T16:22:43.010Z,4.40
2022-08-31T16:25:14.618Z,4.10
2022-08-31T16:27:43.501Z,4.40
2022-08-31T16:30:12.319Z,3.90
2022-08-31T16:32:39.177Z,3.80
2022-08-31T16:35:06.628Z,3.70
2022-08-31T16:37:33.678Z,3.70
2022-08-31T16:40:00.295Z,3.53
2022-08-31T16:42:27.204Z,4.40
2022-08-31T16:44:58.489Z,3.40
2022-08-31T16:47:28.966Z,3.30
2022-08-31T16:49:55.717Z,4.00
2022-08-31T16:52:26.535Z,3.80
2022-08-31T16:54:54.834Z,3.87
2022-08-31T16:57:26.930Z,4.17
2022-08-31T16:59:55.129Z,4.40
2022-08-31T17:02:22.939Z,4.03
2022-08-31T17:04:52.913Z,3.93
2022-08-31T17:07:20.003Z,3.93
2022-08-31T17:09:46.520Z,3.90
2022-08-31T17:12:16.976Z,4.17
2022-08-31T17:14:48.122Z,3.60
2022-08-31T17:17:16.821Z,4.10
2022-08-31T17:19:44.297Z,3.70
2022-08-31T17:22:16.942Z,3.97
2022-08-31T17:24:46.569Z,3.60
2022-08-31T17:27:16.771Z,3.90
2022-08-31T17:29:47.901Z,4.87
2022-08-31T17:32:16.348Z,4.30
2022-08-31T17:34:43.063Z,3.87
2022-08-31T17:37:14.301Z,3.63
2022-08-31T17:39:45.092Z,4.10
2022-08-31T17:42:14.988Z,4.00
2022-08-31T17:44:44.398Z,3.60
2022-08-31T17:47:11.551Z,4.17
2022-08-31T17:49:42.132Z,4.00
2022-08-31T17:52:11.269Z,3.93
2022-08-31T17:54:41.928Z,4.03
2022-08-31T17:57:19.809Z,4.00
2022-08-31T17:59:48.926Z,4.07
2022-08-31T18:02:18.911Z,4.00
2022-08-31T18:04:45.454Z,4.10
2022-08-31T18:07:12.177Z,3.50
2022-08-31T18:09:41.573Z,3.87
2022-08-31T18:12:09.209Z,3.60
2022-08-31T18:14:38.016Z,3.97
2022-08-31T18:17:08.392Z,3.73
2022-08-31T18:19:35.664Z,3.73
2022-08-31T18:22:03.058Z,3.90
2022-08-31T18:24:35.166Z,3.40
2022-08-31T18:27:03.999Z,3.60
2022-08-31T18:29:34.153Z,3.50
2022-08-31T18:32:05.130Z,3.43
2022-08-31T18:34:33.976Z,3.57
2022-08-31T18:37:02.191Z,3.87
2022-08-31T18:39:51.584Z,4.03
2022-08-31T18:42:37.854Z,4.30
2022-08-31T18:45:18.472Z,4.10
2022-08-31T18:48:07.114Z,3.60
2022-08-31T18:50:36.960Z,3.20
2022-08-31T18:53:08.172Z,3.40
2022-08-31T18:55:40.768Z,3.10
2022-08-31T18:58:07.161Z,3.77
2022-08-31T19:00:33.638Z,3.20
2022-08-31T19:03:01.966Z,3.10
2022-08-31T19:05:29.277Z,3.50
2022-08-31T19:07:57.893Z,3.27
2022-08-31T19:10:25.368Z,3.13
2022-08-31T19:12:52.197Z,3.77
2022-08-31T19:15:18.632Z,3.10
2022-08-31T19:17:49.132Z,3.20
2022-08-31T19:20:16.415Z,3.50
2022-08-31T19:22:42.905Z,3.80
2022-08-31T19:25:11.941Z,4.30
2022-08-31T19:27:39.081Z,2.97
2022-08-31T19:30:07.840Z,3.63
2022-08-31T19:32:36.722Z,3.17
2022-08-31T19:35:03.972Z,3.43
2022-08-31T19:37:30.337Z,3.80
2022-08-31T19:39:56.660Z,3.50
2022-08-31T19:42:40.257Z,3.70
2022-08-31T19:45:24.230Z,3.57
2022-08-31T19:47:51.204Z,3.70
2022-08-31T19:50:17.828Z,3.53
2022-08-31T19:52:44.426Z,3.47
2022-08-31T19:55:11.378Z,3.97
2022-08-31T19:57:38.938Z,3.33
2022-08-31T20:00:07.684Z,5.50
2022-08-31T20:02:35.177Z,3.90
2022-08-31T20:05:06.090Z,3.53
2022-08-31T20:07:34.213Z,3.90
2022-08-31T20:10:02.567Z,3.80
2022-08-31T20:12:29.670Z,3.67
2022-08-31T20:14:56.075Z,3.30
2022-08-31T20:17:22.473Z,3.77
2022-08-31T20:19:49.450Z,4.10
2022-08-31T20:22:15.807Z,3.00
2022-08-31T20:24:43.894Z,3.37
2022-08-31T20:27:15.029Z,3.53
2022-08-31T20:29:41.485Z,3.60
2022-08-31T20:32:08.067Z,3.90
2022-08-31T20:34:34.781Z,3.50
2022-08-31T20:37:02.428Z,3.73
2022-08-31T20:39:30.849Z,3.43
2022-08-31T20:41:58.931Z,3.63
2022-08-31T20:44:27.342Z,3.93
2022-08-31T20:47:15.384Z,3.10
2022-08-31T20:49:44.851Z,3.57
2022-08-31T20:52:13.440Z,3.30
2022-08-31T20:54:42.892Z,3.30
2022-08-31T20:57:10.393Z,3.60
2022-08-31T20:59:37.852Z,3.20
2022-08-31T21:02:07.201Z,3.77
2022-08-31T21:04:37.503Z,3.37
2022-08-31T21:07:05.621Z,3.80
2022-08-31T21:09:32.433Z,3.40
2022-08-31T21:11:59.718Z,3.63
2022-08-31T21:14:28.045Z,3.40
2022-08-31T21:16:55.914Z,3.30
2022-08-31T21:19:23.645Z,4.00
2022-08-31T21:21:52.458Z,3.60
2022-08-31T21:24:20.629Z,3.83
2022-08-31T21:26:47.229Z,3.40
2022-08-31T21:29:17.102Z,3.93
2022-08-31T21:31:51.968Z,4.00
2022-08-31T21:34:22.457Z,3.30
2022-08-31T21:36:49.677Z,3.60
2022-08-31T21:39:19.040Z,3.60
2022-08-31T21:41:46.432Z,3.53
2022-08-31T21:44:16.405Z,4.07
2022-08-31T21:46:49.817Z,3.70
2022-08-31T21:49:17.909Z,3.70
2022-08-31T21:51:56.320Z,3.67
2022-08-31T21:54:26.024Z,3.60
2022-08-31T21:56:55.433Z,3.90
2022-08-31T21:59:23.914Z,3.70
2022-08-31T22:01:55.311Z,3.90
2022-08-31T22:04:23.000Z,4.23
2022-08-31T22:06:49.645Z,4.47
2022-08-31T22:09:19.610Z,3.70
2022-08-31T22:11:50.575Z,3.90
2022-08-31T22:14:20.241Z,3.80
2022-08-31T22:16:48.399Z,3.93
2022-08-31T22:19:20.789Z,3.73
2022-08-31T22:21:50.151Z,4.27
2022-08-31T22:24:26.907Z,3.90
2022-08-31T22:26:53.997Z,4.10
2022-08-31T22:29:24.184Z,3.97
2022-08-31T22:31:52.708Z,3.60
2022-08-31T22:34:20.998Z,4.00
2022-08-31T22:36:52.062Z,4.10
2022-08-31T22:39:22.893Z,4.50
2022-08-31T22:41:49.884Z,4.30
2022-08-31T22:44:18.537Z,3.90
2022-08-31T22:46:46.655Z,4.17
2022-08-31T22:49:14.519Z,4.23
2022-08-31T22:51:43.074Z,4.47
2022-08-31T22:54:10.704Z,4.40
2022-08-31T22:56:39.031Z,4.37
2022-08-31T22:59:12.935Z,3.57
2022-08-31T23:01:54.681Z,4.33
2022-08-31T23:04:24.074Z,4.60
2022-08-31T23:06:51.647Z,3.97
2022-08-31T23:09:21.073Z,3.87
2022-08-31T23:11:49.056Z,4.10
2022-08-31T23:14:15.413Z,3.90
2022-08-31T23:16:47.356Z,4.07
2022-08-31T23:19:22.670Z,4.20
2022-08-31T23:21:56.936Z,3.87
2022-08-31T23:24:34.358Z,4.20
2022-08-31T23:27:04.177Z,4.13
2022-08-31T23:29:39.904Z,3.53
2022-08-31T23:32:11.021Z,4.30
2022-08-31T23:34:38.389Z,4.07
2022-08-31T23:37:08.488Z,4.10
2022-08-31T23:39:37.375Z,4.47
2022-08-31T23:42:03.948Z,3.87
2022-08-31T23:44:30.633Z,3.93
2022-08-31T23:46:57.169Z,4.20
2022-08-31T23:49:23.515Z,3.70
2022-08-31T23:51:49.953Z,3.57
2022-08-31T23:54:18.131Z,3.93
2022-08-31T23:56:46.825Z,3.53
2022-08-31T23:59:18.749Z,4.03
